EDVK/KSF METAR and TAF weather

Enter ICAO airport designator
Station Type Date Time Source
EDVK METAR 2020/10/21 17:50 UTC NOAA

EDVK 211750Z 18018G29KT CAVOK 17/07 Q1005


Station Type Date Time Source
EDVK Decoded METAR 2020/10/21 17:50 UTC NOAA

Kassel / Calden, Germany (EDVK) 51-24N 009-23E 283M
Oct 21, 2020 - 01:50 PM EDT / 2020.10.21 1750 UTC
Wind: from the S (180 degrees) at 21 MPH (18 KT) gusting to 33 MPH (29 KT):0
Visibility: greater than 7 mile(s):0
Temperature: 62 F (17 C)
Dew Point: 44 F (7 C)
Relative Humidity: 51%
Pressure (altimeter): 29.68 in. Hg (1005 hPa)
ob: EDVK 211750Z 18018G29KT CAVOK 17/07 Q1005
cycle: 18

Station Type Date Time Source
EDVK TAF 2011/03/23 07:09 UTC NOAA

TAF COR EDVK 230655Z 2307/2321 30002KT 3500 BR SCT025 PROB30
TEMPO 2307/2309 1400 BCFG
BECMG 2307/2310 01007KT 8000

Example: see airport list